createdAt,value
2018-07-24T00:01:59.174Z,53.40
2018-07-24T00:04:28.602Z,53.50
2018-07-24T00:06:59.135Z,53.70
2018-07-24T00:09:28.196Z,53.80
2018-07-24T00:11:57.019Z,53.80
2018-07-24T00:14:28.637Z,54.00
2018-07-24T00:16:57.631Z,54.10
2018-07-24T00:19:26.390Z,54.30
2018-07-24T00:21:56.616Z,54.50
2018-07-24T00:24:25.348Z,54.80
2018-07-24T00:26:55.966Z,54.90
2018-07-24T00:29:24.917Z,54.90
2018-07-24T00:31:53.747Z,54.90
2018-07-24T00:34:23.255Z,55.00
2018-07-24T00:36:51.775Z,55.30
2018-07-24T00:39:21.323Z,55.40
2018-07-24T00:41:50.715Z,55.60
2018-07-24T00:44:19.797Z,55.80
2018-07-24T00:46:48.040Z,55.90
2018-07-24T00:49:16.346Z,56.10
2018-07-24T00:51:46.331Z,56.10
2018-07-24T00:54:15.282Z,56.10
2018-07-24T00:56:44.658Z,56.20
2018-07-24T00:59:13.739Z,56.40
2018-07-24T01:01:42.263Z,56.50
2018-07-24T01:04:10.531Z,56.50
2018-07-24T01:06:39.844Z,56.60
2018-07-24T01:09:10.946Z,56.60
2018-07-24T01:11:40.875Z,56.60
2018-07-24T01:14:10.846Z,56.60
2018-07-24T01:16:41.567Z,56.80
2018-07-24T01:19:09.774Z,56.80
2018-07-24T01:21:38.321Z,56.90
2018-07-24T01:24:08.190Z,57.00
2018-07-24T01:26:36.727Z,56.90
2018-07-24T01:29:05.220Z,57.10
2018-07-24T01:31:33.418Z,57.20
2018-07-24T01:34:01.647Z,57.20
2018-07-24T01:36:32.309Z,57.20
2018-07-24T01:39:00.524Z,57.20
2018-07-24T01:41:28.799Z,57.40
2018-07-24T01:43:57.762Z,57.40
2018-07-24T01:46:25.980Z,57.50
2018-07-24T01:48:56.785Z,57.50
2018-07-24T01:51:25.451Z,57.60
2018-07-24T01:53:54.154Z,57.80
2018-07-24T01:56:22.969Z,57.90
2018-07-24T01:58:52.035Z,58.00
2018-07-24T02:01:23.140Z,58.10
2018-07-24T02:06:21.275Z,58.20
2018-07-24T02:08:53.786Z,58.30
2018-07-24T02:11:22.359Z,58.30
2018-07-24T02:13:51.424Z,58.30
2018-07-24T02:16:20.260Z,58.50
2018-07-24T02:18:48.789Z,58.50
2018-07-24T02:21:18.682Z,58.50
2018-07-24T02:23:49.670Z,58.60
2018-07-24T02:26:19.890Z,58.70
2018-07-24T02:28:48.094Z,58.70
2018-07-24T02:31:16.743Z,59.00
2018-07-24T02:33:45.433Z,59.30
2018-07-24T02:36:13.693Z,59.50
2018-07-24T02:38:41.911Z,59.60
2018-07-24T02:41:11.272Z,59.70
2018-07-24T02:43:39.961Z,59.60
2018-07-24T02:46:11.254Z,59.60
2018-07-24T02:48:39.790Z,59.70
2018-07-24T02:51:08.050Z,59.70
2018-07-24T02:53:36.878Z,59.70
2018-07-24T02:56:05.335Z,59.80
2018-07-24T02:58:34.959Z,59.90
2018-07-24T03:01:04.179Z,60.10
2018-07-24T03:03:36.031Z,60.20
2018-07-24T03:06:05.108Z,60.40
2018-07-24T03:08:39.659Z,60.50
2018-07-24T03:11:08.694Z,60.70
2018-07-24T03:13:37.877Z,60.70
2018-07-24T03:16:07.246Z,61.10
2018-07-24T03:18:36.112Z,61.30
2018-07-24T03:21:06.776Z,61.60
2018-07-24T03:23:35.568Z,61.80
2018-07-24T03:26:03.903Z,61.80
2018-07-24T03:28:32.915Z,61.80
2018-07-24T03:31:02.044Z,62.00
2018-07-24T03:33:30.749Z,62.20
2018-07-24T03:36:02.710Z,62.40
2018-07-24T03:38:31.822Z,62.80
2018-07-24T03:41:00.684Z,63.50
2018-07-24T03:43:30.203Z,62.90
2018-07-24T03:45:59.437Z,62.90
2018-07-24T03:48:30.456Z,63.10
2018-07-24T03:51:01.830Z,63.10
2018-07-24T03:56:00.220Z,63.50
2018-07-24T04:00:58.526Z,64.00
2018-07-24T04:03:26.758Z,64.30
2018-07-24T04:05:55.887Z,64.60
2018-07-24T04:08:27.246Z,64.70
2018-07-24T04:10:56.003Z,64.70
2018-07-24T04:13:25.787Z,64.60
2018-07-24T04:15:54.008Z,64.50
2018-07-24T04:18:23.965Z,64.50
2018-07-24T04:20:57.302Z,64.60
2018-07-24T04:23:26.960Z,64.30
2018-07-24T04:25:56.827Z,64.10
2018-07-24T04:28:26.180Z,64.00
2018-07-24T04:30:55.465Z,63.90
2018-07-24T04:33:23.624Z,63.90
2018-07-24T04:35:52.195Z,64.00
2018-07-24T04:38:21.443Z,64.20
2018-07-24T04:40:49.750Z,64.30
2018-07-24T04:43:18.297Z,64.30
2018-07-24T04:48:19.999Z,64.40
2018-07-24T04:50:48.895Z,64.40
2018-07-24T04:53:20.170Z,64.40
2018-07-24T04:55:51.033Z,64.50
2018-07-24T04:58:20.072Z,64.40
2018-07-24T05:00:49.170Z,64.40
2018-07-24T05:03:19.349Z,64.50
2018-07-24T05:05:47.566Z,64.50
2018-07-24T05:08:17.386Z,64.50
2018-07-24T05:10:46.580Z,64.40
2018-07-24T05:13:14.889Z,64.40
2018-07-24T05:15:46.751Z,64.40
2018-07-24T05:18:15.889Z,64.30
2018-07-24T05:20:45.835Z,64.20
2018-07-24T05:23:16.534Z,64.20
2018-07-24T05:25:45.497Z,64.20
2018-07-24T05:28:14.194Z,64.20
2018-07-24T05:30:43.944Z,64.30
2018-07-24T05:33:13.993Z,64.30
2018-07-24T05:35:43.674Z,64.30
2018-07-24T05:38:13.126Z,64.20
2018-07-24T05:40:42.885Z,64.20
2018-07-24T05:43:18.707Z,64.10
2018-07-24T05:45:47.107Z,64.10
2018-07-24T05:48:19.093Z,63.60
2018-07-24T05:50:49.244Z,62.70
2018-07-24T05:53:19.155Z,62.00
2018-07-24T05:55:48.567Z,61.00
2018-07-24T05:58:16.903Z,60.20
2018-07-24T06:00:46.116Z,59.80
2018-07-24T06:03:16.389Z,59.50
2018-07-24T06:05:44.684Z,59.30
2018-07-24T06:08:12.960Z,59.10
2018-07-24T06:10:41.819Z,59.20
2018-07-24T06:13:10.110Z,59.00
2018-07-24T06:15:40.750Z,58.80
2018-07-24T06:18:11.793Z,58.80
2018-07-24T06:20:40.936Z,58.70
2018-07-24T06:23:10.741Z,58.60
2018-07-24T06:25:39.939Z,58.50
2018-07-24T06:28:09.834Z,58.40
2018-07-24T06:30:39.280Z,58.30
2018-07-24T06:33:09.316Z,58.40
2018-07-24T06:35:39.043Z,58.40
2018-07-24T06:38:07.303Z,58.40
2018-07-24T06:40:36.495Z,59.00
2018-07-24T06:43:07.260Z,58.40
2018-07-24T06:45:37.010Z,58.30
2018-07-24T06:48:07.058Z,58.10
2018-07-24T06:50:35.822Z,57.90
2018-07-24T06:53:08.530Z,57.80
2018-07-24T06:55:36.823Z,57.50
2018-07-24T06:58:05.718Z,57.40
2018-07-24T07:00:33.931Z,57.30
2018-07-24T07:03:03.250Z,57.30
2018-07-24T07:05:34.785Z,57.30
2018-07-24T07:08:06.802Z,57.20
2018-07-24T07:10:35.976Z,57.10
2018-07-24T07:13:05.524Z,56.90
2018-07-24T07:15:33.786Z,56.70
2018-07-24T07:18:04.032Z,56.50
2018-07-24T07:20:32.497Z,56.60
2018-07-24T07:23:01.468Z,56.90
2018-07-24T07:25:32.552Z,56.30
2018-07-24T07:28:01.943Z,57.10
2018-07-24T07:30:30.197Z,56.60
2018-07-24T07:33:00.530Z,56.60
2018-07-24T07:35:30.251Z,56.30
2018-07-24T07:37:58.897Z,56.00
2018-07-24T07:40:27.190Z,55.80
2018-07-24T07:42:55.853Z,55.40
2018-07-24T07:45:26.466Z,55.10
2018-07-24T07:47:54.619Z,54.70
2018-07-24T07:50:23.452Z,54.30
2018-07-24T07:52:53.958Z,54.20
2018-07-24T07:55:23.507Z,53.70
2018-07-24T07:57:52.443Z,53.60
2018-07-24T08:00:21.607Z,53.60
2018-07-24T08:02:52.114Z,53.20
2018-07-24T08:05:21.000Z,52.90
2018-07-24T08:07:50.374Z,52.90
2018-07-24T08:12:50.491Z,52.40
2018-07-24T08:15:20.731Z,52.40
2018-07-24T08:20:18.208Z,52.10
2018-07-24T08:22:46.444Z,52.00
2018-07-24T08:25:16.251Z,51.90
2018-07-24T08:27:48.389Z,51.50
2018-07-24T08:30:19.419Z,51.30
2018-07-24T08:32:49.422Z,50.90
2018-07-24T08:35:20.622Z,50.60
2018-07-24T08:37:53.697Z,50.40
2018-07-24T08:40:31.341Z,50.10
2018-07-24T08:43:01.287Z,49.90
2018-07-24T08:45:34.476Z,49.80
2018-07-24T08:48:07.132Z,49.40
2018-07-24T08:50:40.791Z,49.10
2018-07-24T08:53:13.870Z,48.80
2018-07-24T08:55:46.317Z,48.30
2018-07-24T08:58:20.253Z,48.10
2018-07-24T09:00:52.525Z,47.80
2018-07-24T09:03:25.958Z,47.30
2018-07-24T09:08:29.429Z,47.10
2018-07-24T09:10:59.797Z,46.30
2018-07-24T09:13:31.274Z,45.80
2018-07-24T09:16:00.122Z,45.20
2018-07-24T09:18:28.486Z,44.50
2018-07-24T09:20:57.602Z,43.70
2018-07-24T09:23:29.472Z,43.70
2018-07-24T09:25:59.032Z,44.00
2018-07-24T09:28:28.501Z,43.90
2018-07-24T09:30:58.788Z,43.70
2018-07-24T09:33:28.879Z,43.30
2018-07-24T09:35:57.615Z,42.60
2018-07-24T09:38:27.259Z,42.60
2018-07-24T09:40:56.703Z,42.70
2018-07-24T09:43:25.992Z,42.60
2018-07-24T09:45:54.336Z,42.90
2018-07-24T09:48:22.701Z,43.00
2018-07-24T09:50:51.854Z,42.10
2018-07-24T09:53:20.946Z,42.00
2018-07-24T09:55:50.755Z,42.10
2018-07-24T09:58:20.105Z,41.90
2018-07-24T10:00:56.051Z,41.80
2018-07-24T10:03:24.267Z,41.60
2018-07-24T10:05:52.952Z,41.60
2018-07-24T10:08:23.845Z,41.10
2018-07-24T10:10:54.334Z,40.80
2018-07-24T10:13:24.464Z,40.40
2018-07-24T10:15:53.583Z,40.50
2018-07-24T10:18:22.891Z,40.40
2018-07-24T10:20:51.574Z,40.30
2018-07-24T10:23:20.491Z,40.10
2018-07-24T10:25:56.364Z,40.30
2018-07-24T10:28:25.488Z,39.90
2018-07-24T10:33:24.620Z,38.90
2018-07-24T10:35:55.372Z,38.80
2018-07-24T10:38:23.898Z,38.80
2018-07-24T10:40:53.250Z,38.40
2018-07-24T10:43:22.438Z,38.50
2018-07-24T10:45:52.770Z,38.40
2018-07-24T10:48:21.726Z,38.40
2018-07-24T10:50:51.795Z,38.10
2018-07-24T10:53:20.123Z,38.00
2018-07-24T10:55:49.223Z,38.30
2018-07-24T10:58:19.214Z,38.10
2018-07-24T11:00:47.719Z,37.90
2018-07-24T11:03:15.999Z,38.00
2018-07-24T11:05:45.422Z,38.00
2018-07-24T11:08:14.491Z,37.40
2018-07-24T11:10:43.745Z,37.70
2018-07-24T11:13:13.974Z,38.40
2018-07-24T11:15:42.386Z,37.40
2018-07-24T11:18:11.190Z,37.40
2018-07-24T11:20:39.436Z,36.80
2018-07-24T11:23:10.636Z,36.60
2018-07-24T11:28:07.223Z,36.20
2018-07-24T11:30:36.119Z,35.70
2018-07-24T11:33:08.567Z,35.10
2018-07-24T11:35:38.503Z,34.40
2018-07-24T11:38:08.929Z,34.80
2018-07-24T11:40:37.602Z,34.90
2018-07-24T11:43:06.821Z,34.90
2018-07-24T11:45:37.316Z,34.60
2018-07-24T11:48:06.858Z,34.50
2018-07-24T11:50:36.585Z,34.30
2018-07-24T11:53:05.846Z,34.50
2018-07-24T11:55:34.567Z,34.70
2018-07-24T11:58:06.004Z,33.90
2018-07-24T12:00:34.259Z,33.70
2018-07-24T12:03:02.719Z,33.40
2018-07-24T12:05:31.676Z,33.30
2018-07-24T12:08:00.035Z,33.00
2018-07-24T12:10:29.132Z,32.90
2018-07-24T12:12:58.811Z,32.50
2018-07-24T12:15:27.450Z,32.80
2018-07-24T12:17:57.188Z,32.50
2018-07-24T12:20:26.102Z,32.20
2018-07-24T12:22:54.338Z,31.80
2018-07-24T12:27:53.654Z,31.50
2018-07-24T12:30:22.599Z,31.30
2018-07-24T12:32:52.280Z,31.10
2018-07-24T12:35:20.839Z,31.30
2018-07-24T12:37:50.191Z,31.30
2018-07-24T12:40:19.917Z,31.30
2018-07-24T12:42:49.129Z,31.50
2018-07-24T12:45:17.614Z,31.90
2018-07-24T12:47:47.075Z,31.00
2018-07-24T12:50:15.988Z,30.80
2018-07-24T12:52:44.506Z,30.60
2018-07-24T12:55:14.407Z,31.00
2018-07-24T12:57:42.812Z,31.30
2018-07-24T13:00:12.630Z,31.30
2018-07-24T13:02:41.706Z,31.20
2018-07-24T13:05:13.677Z,31.30
2018-07-24T13:07:46.083Z,31.40
2018-07-24T13:10:15.346Z,31.50
2018-07-24T13:12:45.957Z,31.20
2018-07-24T13:15:14.668Z,31.00
2018-07-24T13:17:43.079Z,31.00
2018-07-24T13:20:11.502Z,30.60
2018-07-24T13:22:42.140Z,30.20
2018-07-24T13:25:10.899Z,30.40
2018-07-24T13:30:07.266Z,30.00
2018-07-24T13:32:36.175Z,29.90
2018-07-24T13:35:04.583Z,29.80
2018-07-24T13:37:34.407Z,29.90
2018-07-24T13:40:04.268Z,29.90
2018-07-24T13:42:34.107Z,29.80
2018-07-24T13:45:03.356Z,29.70
2018-07-24T13:47:35.241Z,29.40
2018-07-24T13:50:06.686Z,29.40
2018-07-24T13:52:35.306Z,29.10
2018-07-24T13:55:04.242Z,28.30
2018-07-24T13:57:35.302Z,27.70
2018-07-24T14:00:05.800Z,26.90
2018-07-24T14:02:36.312Z,26.00
2018-07-24T14:05:05.717Z,25.60
2018-07-24T14:07:34.850Z,25.10
2018-07-24T14:10:04.025Z,24.50
2018-07-24T14:12:34.239Z,23.80
2018-07-24T14:15:02.914Z,23.60
2018-07-24T14:17:31.763Z,23.00
2018-07-24T14:20:00.266Z,22.60
2018-07-24T14:22:28.967Z,22.10
2018-07-24T14:25:01.840Z,21.70
2018-07-24T14:27:30.075Z,21.10
2018-07-24T14:29:58.366Z,20.30
2018-07-24T14:32:27.271Z,19.80
2018-07-24T14:34:55.631Z,19.90
2018-07-24T14:37:24.698Z,19.60
2018-07-24T14:39:53.287Z,19.10
2018-07-24T14:42:23.680Z,18.90
2018-07-24T14:44:52.130Z,18.50
2018-07-24T14:47:21.142Z,19.30
2018-07-24T14:49:50.003Z,19.50
2018-07-24T14:52:20.383Z,19.60
2018-07-24T14:54:48.622Z,19.70
2018-07-24T14:57:17.037Z,20.10
2018-07-24T14:59:46.026Z,20.20
2018-07-24T15:02:14.278Z,20.80
2018-07-24T15:04:43.798Z,21.70
2018-07-24T15:07:11.973Z,22.50
2018-07-24T15:09:40.186Z,23.20
2018-07-24T15:12:08.951Z,23.80
2018-07-24T15:14:37.508Z,23.70
2018-07-24T15:17:07.561Z,23.00
2018-07-24T15:19:37.128Z,21.90
2018-07-24T15:22:05.854Z,20.60
2018-07-24T15:24:35.130Z,20.10
2018-07-24T15:27:03.699Z,20.00
2018-07-24T15:32:02.523Z,19.20
2018-07-24T15:34:31.875Z,18.80
2018-07-24T15:37:02.121Z,18.60
2018-07-24T15:39:31.163Z,18.60
2018-07-24T15:41:59.439Z,18.70
2018-07-24T15:44:27.980Z,19.30
2018-07-24T15:46:56.417Z,19.70
2018-07-24T15:49:28.280Z,20.20
2018-07-24T15:51:58.327Z,20.90
2018-07-24T15:54:27.278Z,21.50
2018-07-24T15:56:56.568Z,22.10
2018-07-24T15:59:27.037Z,22.50
2018-07-24T16:01:56.003Z,22.80
2018-07-24T16:04:25.255Z,23.00
2018-07-24T16:06:57.386Z,23.60
2018-07-24T16:09:27.902Z,24.10
2018-07-24T16:11:57.042Z,24.30
2018-07-24T16:14:25.983Z,24.60
2018-07-24T16:16:54.255Z,24.80
2018-07-24T16:19:23.239Z,24.70
2018-07-24T16:21:53.408Z,24.90
2018-07-24T16:24:23.106Z,25.20
2018-07-24T16:26:51.784Z,25.30
2018-07-24T16:29:21.184Z,25.40
2018-07-24T16:31:51.244Z,25.60
2018-07-24T16:34:20.056Z,26.00
2018-07-24T16:36:49.804Z,26.00
2018-07-24T16:39:18.043Z,25.90
2018-07-24T16:41:47.396Z,26.00
2018-07-24T16:44:16.720Z,26.20
2018-07-24T16:46:45.644Z,26.40
2018-07-24T16:49:15.359Z,26.80
2018-07-24T16:54:12.886Z,27.10
2018-07-24T16:56:42.578Z,27.20
2018-07-24T16:59:11.784Z,27.30
2018-07-24T17:01:40.958Z,27.50
2018-07-24T17:04:11.682Z,27.30
2018-07-24T17:06:40.903Z,27.50
2018-07-24T17:09:11.033Z,27.50
2018-07-24T17:11:40.843Z,27.70
2018-07-24T17:14:11.677Z,27.80
2018-07-24T17:16:40.302Z,27.80
2018-07-24T17:21:38.100Z,27.90
2018-07-24T17:24:07.155Z,27.70
2018-07-24T17:26:36.337Z,27.70
2018-07-24T17:29:05.793Z,27.70
2018-07-24T17:31:35.746Z,27.50
2018-07-24T17:36:33.152Z,26.70
2018-07-24T17:39:01.538Z,26.90
2018-07-24T17:41:30.572Z,27.10
2018-07-24T17:43:59.085Z,27.40
2018-07-24T17:46:32.089Z,27.50
2018-07-24T17:49:00.796Z,27.60
2018-07-24T17:51:30.760Z,27.80
2018-07-24T17:56:28.512Z,28.10
2018-07-24T17:58:58.077Z,28.00
2018-07-24T18:01:27.670Z,28.10
2018-07-24T18:03:56.583Z,27.70
2018-07-24T18:06:25.939Z,27.10
2018-07-24T18:08:57.454Z,26.70
2018-07-24T18:11:27.718Z,27.00
2018-07-24T18:13:55.951Z,27.40
2018-07-24T18:16:24.302Z,27.90
2018-07-24T18:18:54.279Z,28.70
2018-07-24T18:21:29.064Z,29.20
2018-07-24T18:23:59.638Z,29.60
2018-07-24T18:26:28.707Z,30.10
2018-07-24T18:28:56.963Z,30.60
2018-07-24T18:31:25.720Z,31.10
2018-07-24T18:36:24.910Z,31.60
2018-07-24T18:38:54.428Z,31.60
2018-07-24T18:41:24.367Z,31.80
2018-07-24T18:46:25.920Z,32.00
2018-07-24T18:48:54.200Z,32.50
2018-07-24T18:51:22.813Z,33.00
2018-07-24T18:53:53.675Z,33.30
2018-07-24T18:56:22.965Z,32.90
2018-07-24T18:58:53.176Z,32.60
2018-07-24T19:01:22.719Z,33.40
2018-07-24T19:03:52.216Z,34.80
2018-07-24T19:06:20.916Z,35.80
2018-07-24T19:08:49.492Z,36.40
2018-07-24T19:11:19.746Z,36.80
2018-07-24T19:13:50.499Z,37.10
2018-07-24T19:16:19.418Z,37.50
2018-07-24T19:18:49.478Z,37.90
2018-07-24T19:21:18.997Z,37.90
2018-07-24T19:23:48.515Z,38.40
2018-07-24T19:26:17.915Z,38.60
2018-07-24T19:28:47.255Z,38.70
2018-07-24T19:33:44.803Z,39.10
2018-07-24T19:38:42.530Z,39.40
2018-07-24T19:41:16.587Z,39.50
2018-07-24T19:43:46.984Z,39.50
2018-07-24T19:46:17.974Z,39.30
2018-07-24T19:48:46.564Z,39.90
2018-07-24T19:51:15.838Z,40.00
2018-07-24T19:53:44.249Z,40.30
2018-07-24T19:56:13.545Z,40.50
2018-07-24T19:58:43.494Z,40.80
2018-07-24T20:01:12.173Z,40.90
2018-07-24T20:03:42.025Z,41.20
2018-07-24T20:08:39.574Z,41.40
2018-07-24T20:11:07.913Z,42.00
2018-07-24T20:13:39.415Z,41.30
2018-07-24T20:16:08.879Z,41.50
2018-07-24T20:21:09.871Z,41.60
2018-07-24T20:23:38.602Z,41.60
2018-07-24T20:26:07.136Z,41.40
2018-07-24T20:28:36.250Z,41.40
2018-07-24T20:33:37.098Z,41.40
2018-07-24T20:36:06.557Z,41.50
2018-07-24T20:38:36.345Z,41.50
2018-07-24T20:41:06.467Z,41.40
2018-07-24T20:43:35.393Z,41.40
2018-07-24T20:46:05.449Z,41.40
2018-07-24T20:48:33.861Z,41.30
2018-07-24T20:51:03.898Z,41.30
2018-07-24T20:53:33.526Z,41.20
2018-07-24T20:56:02.983Z,41.20
2018-07-24T20:58:32.306Z,41.10
2018-07-24T21:01:01.177Z,41.00
2018-07-24T21:03:31.840Z,40.80
2018-07-24T21:06:02.053Z,40.90
2018-07-24T21:08:31.132Z,40.90
2018-07-24T21:11:00.069Z,40.90
2018-07-24T21:13:29.571Z,41.00
2018-07-24T21:18:25.875Z,40.90
2018-07-24T21:20:55.172Z,40.90
2018-07-24T21:23:24.655Z,41.00
2018-07-24T21:25:54.776Z,41.00
2018-07-24T21:28:23.127Z,41.20
2018-07-24T21:30:55.548Z,41.40
2018-07-24T21:33:24.197Z,41.50
2018-07-24T21:35:54.487Z,41.50
2018-07-24T21:38:23.988Z,41.40
2018-07-24T21:40:53.276Z,41.40
2018-07-24T21:43:21.490Z,41.40
2018-07-24T21:45:50.828Z,41.60
2018-07-24T21:48:19.817Z,41.70
2018-07-24T21:50:48.060Z,41.80
2018-07-24T21:55:49.803Z,42.50
2018-07-24T21:58:18.062Z,42.50
2018-07-24T22:00:50.528Z,42.80
2018-07-24T22:05:47.256Z,43.30
2018-07-24T22:10:46.403Z,43.80
2018-07-24T22:13:16.519Z,44.00
2018-07-24T22:15:44.719Z,44.30
2018-07-24T22:18:14.120Z,44.50
2018-07-24T22:20:43.972Z,44.80
2018-07-24T22:23:12.658Z,45.00
2018-07-24T22:25:40.887Z,45.80
2018-07-24T22:28:09.810Z,45.40
2018-07-24T22:30:40.911Z,45.60
2018-07-24T22:33:11.759Z,45.80
2018-07-24T22:35:40.690Z,45.90
2018-07-24T22:38:10.554Z,46.10
2018-07-24T22:40:39.519Z,46.20
2018-07-24T22:43:09.955Z,46.20
2018-07-24T22:45:39.997Z,46.30
2018-07-24T22:48:09.754Z,46.50
2018-07-24T22:50:38.067Z,46.60
2018-07-24T22:53:06.929Z,46.90
2018-07-24T22:55:35.563Z,47.00
2018-07-24T22:58:04.272Z,47.20
2018-07-24T23:00:33.153Z,47.30
2018-07-24T23:03:04.707Z,47.50
2018-07-24T23:05:35.049Z,47.60
2018-07-24T23:08:03.304Z,47.80
2018-07-24T23:10:34.268Z,48.00
2018-07-24T23:13:06.414Z,48.10
2018-07-24T23:15:35.431Z,48.20
2018-07-24T23:18:09.883Z,48.30
2018-07-24T23:20:38.130Z,48.50
2018-07-24T23:23:07.180Z,48.60
2018-07-24T23:25:36.255Z,48.80
2018-07-24T23:28:04.866Z,48.90
2018-07-24T23:30:34.069Z,49.00
2018-07-24T23:33:02.278Z,49.10
2018-07-24T23:35:30.495Z,49.20
2018-07-24T23:37:58.904Z,49.20
2018-07-24T23:40:27.769Z,49.30
2018-07-24T23:42:56.295Z,49.40
2018-07-24T23:45:25.901Z,49.50
2018-07-24T23:47:54.936Z,49.60
2018-07-24T23:50:24.240Z,49.60
2018-07-24T23:52:54.047Z,49.90
2018-07-24T23:55:23.227Z,49.90
2018-07-24T23:57:51.689Z,50.00
